createdAt,value
2022-10-05T00:02:02.159Z,97497.75
2022-10-05T00:04:29.058Z,97493.34
2022-10-05T00:07:07.985Z,97510.78
2022-10-05T00:09:34.449Z,97539.91
2022-10-05T00:12:13.473Z,97566.19
2022-10-05T00:14:39.887Z,97585.16
2022-10-05T00:17:06.296Z,97589.59
2022-10-05T00:19:34.612Z,97603.84
2022-10-05T00:22:12.202Z,97589.84
2022-10-05T00:24:38.616Z,97577.22
2022-10-05T00:27:19.755Z,97556.44
2022-10-05T00:29:46.949Z,97534.47
2022-10-05T00:32:13.445Z,97510.56
2022-10-05T00:34:39.835Z,97481.66
2022-10-05T00:37:06.417Z,97472.94
2022-10-05T00:39:33.134Z,97458.38
2022-10-05T00:42:08.534Z,97432.00
2022-10-05T00:44:41.763Z,97397.09
2022-10-05T00:47:47.225Z,97325.13
2022-10-05T00:50:25.665Z,97243.56
2022-10-05T00:53:07.038Z,97176.72
2022-10-05T00:55:41.265Z,97137.25
2022-10-05T00:58:25.882Z,97147.78
2022-10-05T01:01:05.142Z,97197.78
2022-10-05T01:03:35.645Z,97175.81
2022-10-05T01:06:29.561Z,97149.56
2022-10-05T01:09:11.126Z,97153.88
2022-10-05T01:11:49.663Z,97177.63
2022-10-05T01:14:39.079Z,97187.59
2022-10-05T01:17:11.601Z,97210.84
2022-10-05T01:19:50.905Z,97242.50
2022-10-05T01:22:40.545Z,97263.09
2022-10-05T01:25:30.922Z,97286.44
2022-10-05T01:27:59.388Z,97298.22
2022-10-05T01:30:25.823Z,97323.69
2022-10-05T01:33:21.437Z,97360.22
2022-10-05T01:36:23.093Z,97406.72
2022-10-05T01:38:55.394Z,97446.84
2022-10-05T01:41:47.065Z,97484.19
2022-10-05T01:44:14.561Z,97515.72
2022-10-05T01:46:44.091Z,97521.13
2022-10-05T01:49:44.727Z,97538.72
2022-10-05T01:52:34.426Z,97565.50
2022-10-05T01:55:22.648Z,97575.53
2022-10-05T01:57:55.193Z,97594.41
2022-10-05T02:00:21.610Z,97614.34
2022-10-05T02:02:49.050Z,97649.78
2022-10-05T02:05:22.292Z,97651.47
2022-10-05T02:07:57.649Z,97646.72
2022-10-05T02:10:26.181Z,97632.59
2022-10-05T02:12:56.030Z,97634.00
2022-10-05T02:15:25.134Z,97642.53
2022-10-05T02:17:55.714Z,97623.50
2022-10-05T02:20:27.143Z,97632.22
2022-10-05T02:22:55.015Z,97623.50
2022-10-05T02:25:23.188Z,97620.19
2022-10-05T02:28:15.813Z,97591.38
2022-10-05T02:30:48.844Z,97577.88
2022-10-05T02:33:33.529Z,97558.03
2022-10-05T02:36:20.849Z,97561.25
2022-10-05T02:39:08.437Z,97560.16
2022-10-05T02:41:58.848Z,97557.28
2022-10-05T02:44:37.873Z,97568.47
2022-10-05T02:47:18.492Z,97576.78
2022-10-05T02:49:53.804Z,97570.97
2022-10-05T02:52:25.462Z,97570.41
2022-10-05T02:55:15.210Z,97558.22
2022-10-05T02:57:49.955Z,97550.47
2022-10-05T03:00:17.392Z,97541.75
2022-10-05T03:03:01.416Z,97537.16
2022-10-05T03:05:46.625Z,97562.72
2022-10-05T03:08:23.673Z,97585.22
2022-10-05T03:11:14.303Z,97588.06
2022-10-05T03:13:59.746Z,97606.19
2022-10-05T03:16:29.197Z,97615.63
2022-10-05T03:18:58.499Z,97633.91
2022-10-05T03:21:33.912Z,97639.91
2022-10-05T03:24:12.435Z,97631.41
2022-10-05T03:26:45.015Z,97623.53
2022-10-05T03:29:32.927Z,97614.81
2022-10-05T03:32:00.682Z,97601.22
2022-10-05T03:34:36.098Z,97588.75
2022-10-05T03:37:28.750Z,97588.88
2022-10-05T03:40:00.447Z,97588.75
2022-10-05T03:42:26.815Z,97590.69
2022-10-05T03:45:14.417Z,97570.13
2022-10-05T03:47:52.259Z,97577.13
2022-10-05T03:50:37.683Z,97571.22
2022-10-05T03:53:06.325Z,97554.63
2022-10-05T03:55:48.731Z,97561.56
2022-10-05T03:58:29.540Z,97565.16
2022-10-05T04:01:07.425Z,97551.03
2022-10-05T04:03:36.514Z,97561.56
2022-10-05T04:06:19.203Z,97552.94
2022-10-05T04:08:59.275Z,97544.38
2022-10-05T04:11:31.758Z,97532.88
2022-10-05T04:14:01.957Z,97516.78
2022-10-05T04:16:31.492Z,97500.06
2022-10-05T04:19:00.105Z,97475.41
2022-10-05T04:21:30.256Z,97464.88
2022-10-05T04:24:19.134Z,97459.38
2022-10-05T04:26:49.714Z,97445.19
2022-10-05T04:29:25.071Z,97446.06
2022-10-05T04:31:56.174Z,97441.34
2022-10-05T04:34:56.772Z,97410.47
2022-10-05T04:37:48.272Z,97373.00
2022-10-05T04:40:33.382Z,97353.38
2022-10-05T04:43:17.902Z,97350.56
2022-10-05T04:46:02.622Z,97329.56
2022-10-05T04:48:50.804Z,97311.56
2022-10-05T04:51:50.282Z,97309.09
2022-10-05T04:54:35.810Z,97295.78
2022-10-05T04:57:03.146Z,97288.31
2022-10-05T04:59:51.144Z,97275.34
2022-10-05T05:02:29.667Z,97266.47
2022-10-05T05:05:17.504Z,97268.97
2022-10-05T05:07:46.825Z,97266.47
2022-10-05T05:10:25.374Z,97243.94
2022-10-05T05:13:00.951Z,97228.31
2022-10-05T05:15:36.426Z,97224.03
2022-10-05T05:18:07.114Z,97219.44
2022-10-05T05:21:09.033Z,97219.19
2022-10-05T05:23:44.634Z,97229.41
2022-10-05T05:26:23.727Z,97238.13
2022-10-05T05:29:14.138Z,97220.84
2022-10-05T05:31:48.503Z,97207.28
2022-10-05T05:34:52.484Z,97208.53
2022-10-05T05:37:35.971Z,97238.25
2022-10-05T05:40:17.623Z,97232.03
2022-10-05T05:42:50.101Z,97238.25
2022-10-05T05:45:22.792Z,97225.41
2022-10-05T05:47:52.070Z,97212.28
2022-10-05T05:50:21.630Z,97190.66
2022-10-05T05:52:53.914Z,97158.84
2022-10-05T05:55:35.307Z,97151.13
2022-10-05T05:58:16.906Z,97142.16
2022-10-05T06:01:01.202Z,97151.38
2022-10-05T06:03:37.536Z,97151.38
2022-10-05T06:06:10.246Z,97144.78
2022-10-05T06:08:42.736Z,97155.97
2022-10-05T06:11:14.685Z,97167.16
2022-10-05T06:13:41.312Z,97174.09
2022-10-05T06:16:22.069Z,97174.09
2022-10-05T06:18:52.654Z,97176.59
2022-10-05T06:21:27.153Z,97178.25
2022-10-05T06:23:59.926Z,97171.88
2022-10-05T06:26:57.366Z,97195.81
2022-10-05T06:29:24.262Z,97204.91
2022-10-05T06:32:02.904Z,97235.78
2022-10-05T06:35:06.220Z,97249.50
2022-10-05T06:37:42.067Z,97254.47
2022-10-05T06:40:39.180Z,97264.72
2022-10-05T06:43:15.659Z,97288.91
2022-10-05T06:45:48.283Z,97327.56
2022-10-05T06:48:24.344Z,97341.00
2022-10-05T06:50:58.799Z,97361.53
2022-10-05T06:53:35.474Z,97375.91
2022-10-05T06:56:10.825Z,97412.75
2022-10-05T06:59:03.814Z,97440.19
2022-10-05T07:01:35.944Z,97441.56
2022-10-05T07:04:34.565Z,97506.13
2022-10-05T07:07:07.048Z,97513.88
2022-10-05T07:09:55.273Z,97535.78
2022-10-05T07:12:44.546Z,97550.78
2022-10-05T07:15:34.079Z,97582.63
2022-10-05T07:18:22.423Z,97552.25
2022-10-05T07:21:11.896Z,97516.13
2022-10-05T07:23:53.292Z,97516.00
2022-10-05T07:26:27.843Z,97485.34
2022-10-05T07:29:34.556Z,97479.00
2022-10-05T07:32:10.015Z,97473.19
2022-10-05T07:34:55.073Z,97463.50
2022-10-05T07:37:48.614Z,97476.81
2022-10-05T07:40:23.644Z,97504.00
2022-10-05T07:43:05.299Z,97534.75
2022-10-05T07:45:51.538Z,97563.59
2022-10-05T07:48:21.042Z,97594.38
2022-10-05T07:50:56.569Z,97622.59
2022-10-05T07:53:25.927Z,97669.34
2022-10-05T07:55:53.850Z,97671.31
2022-10-05T07:58:31.826Z,97695.72
2022-10-05T08:01:11.428Z,97693.50
2022-10-05T08:03:47.009Z,97729.31
2022-10-05T08:06:25.935Z,97734.19
2022-10-05T08:09:07.133Z,97753.19
2022-10-05T08:11:55.608Z,97753.34
2022-10-05T08:14:44.795Z,97723.50
2022-10-05T08:17:21.612Z,97734.06
2022-10-05T08:19:59.306Z,97756.00
2022-10-05T08:22:29.701Z,97749.88
2022-10-05T08:25:01.567Z,97757.91
2022-10-05T08:27:42.662Z,97756.25
2022-10-05T08:30:10.468Z,97759.03
2022-10-05T08:33:05.006Z,97727.38
2022-10-05T08:35:37.694Z,97750.69
2022-10-05T08:38:16.833Z,97773.19
2022-10-05T08:40:49.287Z,97765.97
2022-10-05T08:43:30.584Z,97764.59
2022-10-05T08:46:24.237Z,97781.69
2022-10-05T08:49:12.575Z,97801.25
2022-10-05T08:51:54.184Z,97825.00
2022-10-05T08:54:39.320Z,97835.16
2022-10-05T08:57:14.636Z,97857.53
2022-10-05T08:59:59.835Z,97848.09
2022-10-05T09:02:28.483Z,97856.44
2022-10-05T09:04:58.071Z,97894.09
2022-10-05T09:07:41.014Z,97920.72
2022-10-05T09:10:49.859Z,97930.19
2022-10-05T09:13:22.633Z,97905.75
2022-10-05T09:16:07.888Z,97891.91
2022-10-05T09:18:44.844Z,97920.16
2022-10-05T09:21:30.287Z,97927.25
2022-10-05T09:24:11.082Z,97973.69
2022-10-05T09:26:40.462Z,97988.69
2022-10-05T09:29:42.331Z,98031.34
2022-10-05T09:32:33.429Z,98062.53
2022-10-05T09:35:37.444Z,98016.81
2022-10-05T09:38:13.100Z,98030.72
2022-10-05T09:41:12.915Z,98050.47
2022-10-05T09:43:58.027Z,98053.16
2022-10-05T09:46:43.215Z,98059.13
2022-10-05T09:49:21.795Z,98089.84
2022-10-05T09:52:03.629Z,98097.78
2022-10-05T09:54:40.248Z,98103.91
2022-10-05T09:57:34.601Z,98126.47
2022-10-05T10:00:13.177Z,98134.78
2022-10-05T10:03:18.540Z,98119.09
2022-10-05T10:06:11.231Z,98139.00
2022-10-05T10:08:46.793Z,98137.47
2022-10-05T10:11:16.554Z,98162.06
2022-10-05T10:13:52.102Z,98145.09
2022-10-05T10:16:37.258Z,98118.09
2022-10-05T10:19:48.681Z,98122.41
2022-10-05T10:22:23.832Z,98124.25
2022-10-05T10:25:06.665Z,98123.94
2022-10-05T10:28:00.123Z,98142.31
2022-10-05T10:30:43.123Z,98148.16
2022-10-05T10:33:37.236Z,98140.91
2022-10-05T10:36:17.189Z,98135.94
2022-10-05T10:39:03.839Z,98130.09
2022-10-05T10:41:39.342Z,98162.66
2022-10-05T10:44:27.152Z,98156.56
2022-10-05T10:47:06.211Z,98160.44
2022-10-05T10:50:09.948Z,98193.28
2022-10-05T10:53:21.029Z,98200.53
2022-10-05T10:56:05.562Z,98191.41
2022-10-05T10:58:38.318Z,98193.13
2022-10-05T11:01:25.333Z,98214.00
2022-10-05T11:04:13.359Z,98231.13
2022-10-05T11:06:49.604Z,98247.69
2022-10-05T11:09:22.665Z,98250.69
2022-10-05T11:12:12.613Z,98233.16
2022-10-05T11:14:42.334Z,98198.00
2022-10-05T11:17:17.549Z,98202.84
2022-10-05T11:20:04.424Z,98224.88
2022-10-05T11:23:10.053Z,98220.41
2022-10-05T11:25:54.406Z,98226.03
2022-10-05T11:28:48.190Z,98244.13
2022-10-05T11:31:30.273Z,98280.63
2022-10-05T11:34:07.001Z,98291.34
2022-10-05T11:37:00.855Z,98298.97
2022-10-05T11:39:53.694Z,98284.50
2022-10-05T11:42:39.633Z,98292.63
2022-10-05T11:45:19.097Z,98303.19
2022-10-05T11:47:48.461Z,98328.81
2022-10-05T11:50:21.744Z,98329.38
2022-10-05T11:52:50.498Z,98325.38
2022-10-05T11:55:52.455Z,98323.59
2022-10-05T11:58:23.529Z,98334.19
2022-10-05T12:01:01.751Z,98354.81
2022-10-05T12:03:41.269Z,98363.13
2022-10-05T12:06:32.566Z,98363.53
2022-10-05T12:09:05.013Z,98357.38
2022-10-05T12:11:53.258Z,98358.81
2022-10-05T12:14:37.143Z,98336.09
2022-10-05T12:17:11.227Z,98359.25
2022-10-05T12:19:45.672Z,98383.16
2022-10-05T12:22:15.538Z,98396.59
2022-10-05T12:24:44.919Z,98383.16
2022-10-05T12:27:17.002Z,98374.53
2022-10-05T12:30:28.285Z,98365.53
2022-10-05T12:33:17.129Z,98377.06
2022-10-05T12:36:05.830Z,98372.66
2022-10-05T12:38:38.592Z,98392.03
2022-10-05T12:41:08.022Z,98399.84
2022-10-05T12:43:38.355Z,98408.63
2022-10-05T12:46:13.890Z,98413.72
2022-10-05T12:48:43.719Z,98401.59
2022-10-05T12:51:27.467Z,98416.72
2022-10-05T12:53:59.988Z,98419.91
2022-10-05T12:56:49.518Z,98446.25
2022-10-05T12:59:41.127Z,98479.06
2022-10-05T13:02:24.350Z,98463.41
2022-10-05T13:05:14.178Z,98477.66
2022-10-05T13:07:46.540Z,98490.78
2022-10-05T13:10:12.972Z,98504.19
2022-10-05T13:13:01.468Z,98506.41
2022-10-05T13:15:47.033Z,98482.84
2022-10-05T13:18:52.628Z,98481.56
2022-10-05T13:21:48.666Z,98474.44
2022-10-05T13:24:23.994Z,98457.59
2022-10-05T13:27:15.093Z,98472.09
2022-10-05T13:29:54.207Z,98530.84
2022-10-05T13:32:23.635Z,98547.00
2022-10-05T13:34:53.181Z,98609.38
2022-10-05T13:37:28.800Z,98606.97
2022-10-05T13:40:01.005Z,98602.75
2022-10-05T13:42:45.947Z,98623.44
2022-10-05T13:45:23.086Z,98628.88
2022-10-05T13:48:13.925Z,98673.00
2022-10-05T13:50:48.265Z,98722.66
2022-10-05T13:53:26.752Z,98765.75
2022-10-05T13:56:00.886Z,98776.66
2022-10-05T13:58:33.926Z,98784.63
2022-10-05T14:01:22.579Z,98797.94
2022-10-05T14:04:20.955Z,98807.47
2022-10-05T14:06:47.764Z,98822.91
2022-10-05T14:09:20.275Z,98827.75
2022-10-05T14:12:11.840Z,98842.22
2022-10-05T14:14:57.633Z,98823.28
2022-10-05T14:17:33.393Z,98874.69
2022-10-05T14:20:00.868Z,98903.25
2022-10-05T14:22:27.492Z,98972.03
2022-10-05T14:25:03.593Z,99021.78
2022-10-05T14:27:33.003Z,99077.84
2022-10-05T14:30:09.500Z,99141.59
2022-10-05T14:32:52.550Z,99196.41
2022-10-05T14:35:21.985Z,99309.38
2022-10-05T14:37:58.358Z,99424.16
2022-10-05T14:40:30.396Z,99564.16
2022-10-05T14:42:58.141Z,99672.94
2022-10-05T14:45:25.795Z,99779.03
2022-10-05T14:47:53.994Z,99838.38
2022-10-05T14:50:29.699Z,99909.72
2022-10-05T14:53:11.463Z,99983.50
2022-10-05T14:55:37.855Z,100022.50
2022-10-05T14:58:30.649Z,100084.06
2022-10-05T15:01:15.395Z,100127.84
2022-10-05T15:03:47.893Z,100140.44
2022-10-05T15:06:20.395Z,100177.16
2022-10-05T15:08:53.435Z,100179.22
2022-10-05T15:11:42.877Z,100174.97
2022-10-05T15:14:17.618Z,100237.50
2022-10-05T15:16:44.035Z,100270.53
2022-10-05T15:19:15.982Z,100260.28
2022-10-05T15:22:08.400Z,100220.13
2022-10-05T15:24:44.056Z,100210.75
2022-10-05T15:27:16.177Z,100195.75
2022-10-05T15:30:17.868Z,100200.56
2022-10-05T15:33:21.934Z,100167.78
2022-10-05T15:36:11.615Z,100179.94
2022-10-05T15:39:08.695Z,100076.31
2022-10-05T15:41:47.362Z,100055.50
2022-10-05T15:44:36.330Z,99906.44
2022-10-05T15:47:10.301Z,99865.03
2022-10-05T15:49:49.213Z,99625.22
2022-10-05T15:52:23.802Z,99482.22
2022-10-05T15:55:27.812Z,99241.44
2022-10-05T15:58:08.328Z,99002.97
2022-10-05T16:00:45.209Z,98913.25
2022-10-05T16:03:34.653Z,98802.81
2022-10-05T16:06:24.634Z,98870.78
2022-10-05T16:09:12.299Z,98949.41
2022-10-05T16:11:51.044Z,98964.97
2022-10-05T16:14:46.773Z,98978.75
2022-10-05T16:17:15.942Z,98930.59
2022-10-05T16:19:48.381Z,98834.06
2022-10-05T16:22:36.408Z,98830.13
2022-10-05T16:25:23.718Z,98805.25
2022-10-05T16:28:19.433Z,98743.22
2022-10-05T16:31:07.408Z,98691.41
2022-10-05T16:33:58.398Z,98583.75
2022-10-05T16:36:29.280Z,98506.09
2022-10-05T16:39:04.910Z,98481.22
2022-10-05T16:41:32.827Z,98513.94
2022-10-05T16:44:14.341Z,98437.16
2022-10-05T16:46:57.683Z,98367.13
2022-10-05T16:49:38.812Z,98405.03
2022-10-05T16:52:08.404Z,98357.06
2022-10-05T16:54:48.062Z,98292.63
2022-10-05T16:57:20.664Z,98258.31
2022-10-05T17:00:51.588Z,98304.88
2022-10-05T17:03:20.962Z,98246.94
2022-10-05T17:06:12.239Z,98290.66
2022-10-05T17:09:00.651Z,98321.03
2022-10-05T17:11:42.102Z,98310.75
2022-10-05T17:14:17.550Z,98300.97
2022-10-05T17:16:47.077Z,98233.91
2022-10-05T17:19:47.580Z,98200.25
2022-10-05T17:22:31.412Z,98213.06
2022-10-05T17:25:14.626Z,98263.56
2022-10-05T17:27:56.990Z,98288.41
2022-10-05T17:30:29.428Z,98274.19
2022-10-05T17:33:04.416Z,98287.97
2022-10-05T17:35:52.101Z,98319.59
2022-10-05T17:38:23.143Z,98345.53
2022-10-05T17:41:14.060Z,98374.53
2022-10-05T17:43:40.770Z,98434.25
2022-10-05T17:46:10.342Z,98486.72
2022-10-05T17:48:48.976Z,98497.56
2022-10-05T17:51:57.214Z,98521.84
2022-10-05T17:54:43.680Z,98540.00
2022-10-05T17:57:10.032Z,98538.59
2022-10-05T17:59:44.433Z,98543.34
2022-10-05T18:02:19.848Z,98552.00
2022-10-05T18:05:04.968Z,98539.75
2022-10-05T18:07:35.299Z,98549.25
2022-10-05T18:10:16.854Z,98556.22
2022-10-05T18:12:50.571Z,98548.97
2022-10-05T18:15:40.408Z,98552.47
2022-10-05T18:18:34.750Z,98536.13
2022-10-05T18:21:13.425Z,98534.19
2022-10-05T18:23:51.928Z,98517.34
2022-10-05T18:26:40.121Z,98513.88
2022-10-05T18:29:15.371Z,98483.59
2022-10-05T18:31:55.390Z,98475.09
2022-10-05T18:34:30.605Z,98464.22
2022-10-05T18:37:15.539Z,98455.59
2022-10-05T18:39:51.804Z,98448.88
2022-10-05T18:42:27.135Z,98437.44
2022-10-05T18:44:57.172Z,98429.63
2022-10-05T18:47:38.798Z,98417.03
2022-10-05T18:50:14.431Z,98410.19
2022-10-05T18:52:55.718Z,98398.31
2022-10-05T18:55:56.202Z,98383.53
2022-10-05T18:58:36.821Z,98365.13
2022-10-05T19:01:41.060Z,98349.81
2022-10-05T19:04:43.070Z,98348.97
2022-10-05T19:08:03.913Z,98343.94
2022-10-05T19:10:36.982Z,98334.47
2022-10-05T19:13:18.447Z,98323.31
2022-10-05T19:16:06.702Z,98318.16
2022-10-05T19:19:06.677Z,98312.19
2022-10-05T19:21:39.389Z,98313.41
2022-10-05T19:24:10.071Z,98312.44
2022-10-05T19:26:58.412Z,98305.47
2022-10-05T19:29:58.892Z,98294.34
2022-10-05T19:33:04.995Z,98291.09
2022-10-05T19:35:50.673Z,98283.31
2022-10-05T19:38:20.657Z,98277.44
2022-10-05T19:41:13.402Z,98275.09
2022-10-05T19:43:39.743Z,98272.00
2022-10-05T19:46:26.340Z,98276.47
2022-10-05T19:48:53.582Z,98266.16
2022-10-05T19:51:29.311Z,98273.41
2022-10-05T19:54:25.790Z,98251.09
2022-10-05T19:56:53.392Z,98244.44
2022-10-05T19:59:26.733Z,98227.97
2022-10-05T20:01:55.315Z,98222.97
2022-10-05T20:04:41.205Z,98211.81
2022-10-05T20:07:17.922Z,98207.34
2022-10-05T20:09:59.957Z,98193.16
2022-10-05T20:13:14.872Z,98188.16
2022-10-05T20:15:59.984Z,98188.16
2022-10-05T20:19:03.346Z,98174.47
2022-10-05T20:21:37.161Z,98167.25
2022-10-05T20:24:18.587Z,98168.91
2022-10-05T20:27:06.414Z,98159.19
2022-10-05T20:29:37.213Z,98139.38
2022-10-05T20:32:08.836Z,98136.06
2022-10-05T20:34:41.260Z,98140.22
2022-10-05T20:37:08.812Z,98136.59
2022-10-05T20:39:35.189Z,98123.50
2022-10-05T20:42:01.691Z,98122.38
2022-10-05T20:44:28.190Z,98127.00
2022-10-05T20:46:58.471Z,98123.22
2022-10-05T20:49:30.213Z,98103.72
2022-10-05T20:51:59.600Z,98087.28
2022-10-05T20:54:26.249Z,98089.53
2022-10-05T20:56:53.883Z,98084.94
2022-10-05T20:59:20.355Z,98095.25
2022-10-05T21:01:49.606Z,98088.69
2022-10-05T21:04:16.904Z,98087.56
2022-10-05T21:06:43.841Z,98094.97
2022-10-05T21:09:11.519Z,98104.31
2022-10-05T21:11:39.583Z,98107.63
2022-10-05T21:14:06.135Z,98130.47
2022-10-05T21:16:34.004Z,98121.41
2022-10-05T21:19:00.426Z,98133.13
2022-10-05T21:21:28.075Z,98147.56
2022-10-05T21:23:54.832Z,98156.09
2022-10-05T21:26:21.219Z,98170.56
2022-10-05T21:28:47.659Z,98167.91
2022-10-05T21:31:14.135Z,98172.53
2022-10-05T21:33:40.552Z,98176.69
2022-10-05T21:36:06.933Z,98184.50
2022-10-05T21:38:33.313Z,98179.22
2022-10-05T21:40:59.777Z,98174.19
2022-10-05T21:43:26.578Z,98175.44
2022-10-05T21:45:54.084Z,98174.06
2022-10-05T21:48:20.528Z,98178.41
2022-10-05T21:50:47.015Z,98173.09
2022-10-05T21:53:14.732Z,98173.09
2022-10-05T21:55:41.508Z,98167.09
2022-10-05T21:58:07.900Z,98161.78
2022-10-05T22:00:34.347Z,98166.97
2022-10-05T22:03:00.769Z,98171.97
2022-10-05T22:05:27.173Z,98166.69
2022-10-05T22:07:53.567Z,98164.19
2022-10-05T22:10:19.938Z,98152.19
2022-10-05T22:12:47.105Z,98133.25
2022-10-05T22:15:13.765Z,98127.97
2022-10-05T22:17:40.291Z,98125.31
2022-10-05T22:20:07.087Z,98112.34
2022-10-05T22:22:33.548Z,98109.03
2022-10-05T22:24:59.923Z,98096.78
2022-10-05T22:27:27.484Z,98088.84
2022-10-05T22:29:54.040Z,98086.19
2022-10-05T22:32:20.435Z,98081.03
2022-10-05T22:34:46.893Z,98063.91
2022-10-05T22:37:13.333Z,98056.94
2022-10-05T22:39:40.124Z,98047.34
2022-10-05T22:42:06.868Z,98056.94
2022-10-05T22:44:33.979Z,98047.19
2022-10-05T22:47:00.780Z,98034.38
2022-10-05T22:49:27.375Z,98041.06
2022-10-05T22:51:54.743Z,98033.81
2022-10-05T22:54:21.165Z,98033.53
2022-10-05T22:56:47.537Z,98044.41
2022-10-05T22:59:13.920Z,98043.53
2022-10-05T23:01:40.360Z,98068.75
2022-10-05T23:04:08.712Z,98071.13
2022-10-05T23:06:35.095Z,98076.69
2022-10-05T23:09:01.445Z,98073.63
2022-10-05T23:11:27.960Z,98063.31
2022-10-05T23:13:56.701Z,98053.59
2022-10-05T23:16:24.860Z,98042.16
2022-10-05T23:18:52.466Z,98049.13
2022-10-05T23:21:20.105Z,98042.72
2022-10-05T23:23:51.052Z,98026.84
2022-10-05T23:26:20.350Z,98021.84
2022-10-05T23:28:47.310Z,98035.22
2022-10-05T23:31:18.760Z,98022.94
2022-10-05T23:33:45.202Z,98029.09
2022-10-05T23:36:16.492Z,98036.75
2022-10-05T23:38:43.077Z,98035.06
2022-10-05T23:41:09.570Z,98042.72
2022-10-05T23:43:36.706Z,98054.97
2022-10-05T23:46:04.193Z,98047.19
2022-10-05T23:48:31.510Z,98038.28
2022-10-05T23:50:58.238Z,98041.06
2022-10-05T23:53:24.721Z,98046.38
2022-10-05T23:55:51.917Z,98027.13
2022-10-05T23:58:18.778Z,98025.47
